sensor_id;sensor_type;location;lat;lon;timestamp;P1;durP1;ratioP1;P2;durP2;ratioP2
55455;SDS011;63021;52.836;6.376;2023-02-07T00:00:43;22.90;;;9.32;;
55455;SDS011;63021;52.836;6.376;2023-02-07T00:03:09;27.67;;;9.27;;
55455;SDS011;63021;52.836;6.376;2023-02-07T00:05:35;14.50;;;7.63;;
55455;SDS011;63021;52.836;6.376;2023-02-07T00:08:01;12.63;;;7.03;;
55455;SDS011;63021;52.836;6.376;2023-02-07T00:10:27;33.05;;;6.85;;
55455;SDS011;63021;52.836;6.376;2023-02-07T00:12:53;28.55;;;6.70;;
55455;SDS011;63021;52.836;6.376;2023-02-07T00:15:18;11.48;;;5.22;;
55455;SDS011;63021;52.836;6.376;2023-02-07T00:17:44;10.98;;;5.28;;
55455;SDS011;63021;52.836;6.376;2023-02-07T00:20:09;11.18;;;5.35;;
55455;SDS011;63021;52.836;6.376;2023-02-07T00:22:35;11.07;;;6.03;;
55455;SDS011;63021;52.836;6.376;2023-02-07T00:25:01;12.60;;;6.72;;
55455;SDS011;63021;52.836;6.376;2023-02-07T00:27:26;26.13;;;7.45;;
55455;SDS011;63021;52.836;6.376;2023-02-07T00:29:51;13.93;;;7.05;;
55455;SDS011;63021;52.836;6.376;2023-02-07T00:32:17;24.95;;;7.88;;
55455;SDS011;63021;52.836;6.376;2023-02-07T00:34:44;15.45;;;8.10;;
55455;SDS011;63021;52.836;6.376;2023-02-07T00:37:10;13.00;;;8.23;;
55455;SDS011;63021;52.836;6.376;2023-02-07T00:39:35;19.35;;;9.25;;
55455;SDS011;63021;52.836;6.376;2023-02-07T00:42:02;21.30;;;11.15;;
55455;SDS011;63021;52.836;6.376;2023-02-07T00:44:28;36.38;;;11.48;;
55455;SDS011;63021;52.836;6.376;2023-02-07T00:46:53;19.85;;;9.30;;
55455;SDS011;63021;52.836;6.376;2023-02-07T00:49:19;23.48;;;10.18;;
55455;SDS011;63021;52.836;6.376;2023-02-07T00:51:44;26.00;;;10.75;;
55455;SDS011;63021;52.836;6.376;2023-02-07T00:54:10;18.77;;;9.68;;
55455;SDS011;63021;52.836;6.376;2023-02-07T00:56:35;28.13;;;11.30;;
55455;SDS011;63021;52.836;6.376;2023-02-07T00:59:00;20.48;;;10.30;;
55455;SDS011;63021;52.836;6.376;2023-02-07T01:01:26;18.90;;;10.32;;
55455;SDS011;63021;52.836;6.376;2023-02-07T01:03:52;26.90;;;11.85;;
55455;SDS011;63021;52.836;6.376;2023-02-07T01:06:18;21.83;;;9.32;;
55455;SDS011;63021;52.836;6.376;2023-02-07T01:08:44;19.33;;;10.57;;
55455;SDS011;63021;52.836;6.376;2023-02-07T01:11:11;19.85;;;10.48;;
55455;SDS011;63021;52.836;6.376;2023-02-07T01:13:38;26.27;;;10.88;;
55455;SDS011;63021;52.836;6.376;2023-02-07T01:16:07;20.83;;;9.43;;
55455;SDS011;63021;52.836;6.376;2023-02-07T01:18:40;19.85;;;9.82;;
55455;SDS011;63021;52.836;6.376;2023-02-07T01:21:12;18.33;;;8.43;;
55455;SDS011;63021;52.836;6.376;2023-02-07T01:23:49;16.83;;;8.07;;
55455;SDS011;63021;52.836;6.376;2023-02-07T01:26:15;18.65;;;9.07;;
55455;SDS011;63021;52.836;6.376;2023-02-07T01:28:41;14.73;;;7.43;;
55455;SDS011;63021;52.836;6.376;2023-02-07T01:31:07;17.73;;;8.05;;
55455;SDS011;63021;52.836;6.376;2023-02-07T01:33:35;14.35;;;9.23;;
55455;SDS011;63021;52.836;6.376;2023-02-07T01:36:09;39.05;;;9.07;;
55455;SDS011;63021;52.836;6.376;2023-02-07T01:38:36;14.95;;;8.45;;
55455;SDS011;63021;52.836;6.376;2023-02-07T01:41:02;20.15;;;8.38;;
55455;SDS011;63021;52.836;6.376;2023-02-07T01:43:28;16.20;;;8.95;;
55455;SDS011;63021;52.836;6.376;2023-02-07T01:45:54;15.35;;;8.20;;
55455;SDS011;63021;52.836;6.376;2023-02-07T01:48:21;18.58;;;9.90;;
55455;SDS011;63021;52.836;6.376;2023-02-07T01:50:49;15.68;;;9.23;;
55455;SDS011;63021;52.836;6.376;2023-02-07T01:53:18;23.55;;;10.38;;
55455;SDS011;63021;52.836;6.376;2023-02-07T01:55:46;34.92;;;11.77;;
55455;SDS011;63021;52.836;6.376;2023-02-07T01:58:13;55.13;;;13.00;;
55455;SDS011;63021;52.836;6.376;2023-02-07T02:00:39;38.35;;;11.35;;
55455;SDS011;63021;52.836;6.376;2023-02-07T02:03:05;37.50;;;10.68;;
55455;SDS011;63021;52.836;6.376;2023-02-07T02:05:30;34.80;;;11.45;;
55455;SDS011;63021;52.836;6.376;2023-02-07T02:07:57;47.47;;;10.70;;
55455;SDS011;63021;52.836;6.376;2023-02-07T02:10:23;68.63;;;11.80;;
55455;SDS011;63021;52.836;6.376;2023-02-07T02:26:37;24.63;;;8.40;;
55455;SDS011;63021;52.836;6.376;2023-02-07T02:34:52;52.35;;;11.48;;
55455;SDS011;63021;52.836;6.376;2023-02-07T02:40:03;81.50;;;13.27;;
55455;SDS011;63021;52.836;6.376;2023-02-07T02:42:37;62.53;;;12.20;;
55455;SDS011;63021;52.836;6.376;2023-02-07T02:47:57;44.63;;;8.63;;
55455;SDS011;63021;52.836;6.376;2023-02-07T02:50:27;26.23;;;9.10;;
55455;SDS011;63021;52.836;6.376;2023-02-07T02:52:54;19.90;;;7.80;;
55455;SDS011;63021;52.836;6.376;2023-02-07T02:55:46;41.45;;;7.45;;
55455;SDS011;63021;52.836;6.376;2023-02-07T03:03:53;12.25;;;7.97;;
55455;SDS011;63021;52.836;6.376;2023-02-07T03:09:28;18.33;;;10.75;;
55455;SDS011;63021;52.836;6.376;2023-02-07T03:12:02;20.30;;;12.13;;
55455;SDS011;63021;52.836;6.376;2023-02-07T03:14:44;18.40;;;10.65;;
55455;SDS011;63021;52.836;6.376;2023-02-07T03:22:33;55.78;;;20.77;;
55455;SDS011;63021;52.836;6.376;2023-02-07T03:24:59;69.85;;;28.98;;
55455;SDS011;63021;52.836;6.376;2023-02-07T03:27:27;72.53;;;29.83;;
55455;SDS011;63021;52.836;6.376;2023-02-07T03:29:56;64.00;;;26.00;;
55455;SDS011;63021;52.836;6.376;2023-02-07T03:32:27;34.38;;;16.17;;
55455;SDS011;63021;52.836;6.376;2023-02-07T03:37:34;19.15;;;11.57;;
55455;SDS011;63021;52.836;6.376;2023-02-07T03:40:03;15.90;;;10.23;;
55455;SDS011;63021;52.836;6.376;2023-02-07T03:42:49;16.58;;;9.05;;
55455;SDS011;63021;52.836;6.376;2023-02-07T03:45:19;14.02;;;8.27;;
55455;SDS011;63021;52.836;6.376;2023-02-07T03:47:45;12.77;;;8.00;;
55455;SDS011;63021;52.836;6.376;2023-02-07T03:50:14;13.48;;;8.30;;
55455;SDS011;63021;52.836;6.376;2023-02-07T03:52:40;15.85;;;8.88;;
55455;SDS011;63021;52.836;6.376;2023-02-07T03:55:06;13.82;;;9.02;;
55455;SDS011;63021;52.836;6.376;2023-02-07T03:57:32;14.60;;;9.98;;
55455;SDS011;63021;52.836;6.376;2023-02-07T03:59:57;12.82;;;9.38;;
55455;SDS011;63021;52.836;6.376;2023-02-07T04:02:23;15.25;;;9.82;;
55455;SDS011;63021;52.836;6.376;2023-02-07T04:04:48;14.98;;;9.88;;
55455;SDS011;63021;52.836;6.376;2023-02-07T04:07:14;13.77;;;8.80;;
55455;SDS011;63021;52.836;6.376;2023-02-07T04:09:39;12.55;;;8.68;;
55455;SDS011;63021;52.836;6.376;2023-02-07T04:12:05;16.00;;;10.60;;
55455;SDS011;63021;52.836;6.376;2023-02-07T04:14:30;16.60;;;9.70;;
55455;SDS011;63021;52.836;6.376;2023-02-07T04:16:56;15.80;;;9.13;;
55455;SDS011;63021;52.836;6.376;2023-02-07T04:19:21;16.65;;;9.73;;
55455;SDS011;63021;52.836;6.376;2023-02-07T04:21:47;16.08;;;10.38;;
55455;SDS011;63021;52.836;6.376;2023-02-07T04:24:12;14.65;;;10.75;;
55455;SDS011;63021;52.836;6.376;2023-02-07T04:26:38;16.35;;;10.73;;
55455;SDS011;63021;52.836;6.376;2023-02-07T04:29:04;16.98;;;11.65;;
55455;SDS011;63021;52.836;6.376;2023-02-07T04:31:30;13.85;;;9.02;;
55455;SDS011;63021;52.836;6.376;2023-02-07T04:33:55;16.88;;;9.85;;
55455;SDS011;63021;52.836;6.376;2023-02-07T04:36:20;15.50;;;9.57;;
55455;SDS011;63021;52.836;6.376;2023-02-07T04:38:46;9.60;;;8.23;;
55455;SDS011;63021;52.836;6.376;2023-02-07T04:41:12;14.95;;;9.77;;
55455;SDS011;63021;52.836;6.376;2023-02-07T04:43:37;24.30;;;10.82;;
55455;SDS011;63021;52.836;6.376;2023-02-07T04:46:04;19.30;;;11.50;;
55455;SDS011;63021;52.836;6.376;2023-02-07T04:48:31;26.90;;;12.88;;
55455;SDS011;63021;52.836;6.376;2023-02-07T04:50:57;27.52;;;12.73;;
55455;SDS011;63021;52.836;6.376;2023-02-07T04:53:23;27.83;;;14.88;;
55455;SDS011;63021;52.836;6.376;2023-02-07T04:55:49;34.80;;;15.10;;
55455;SDS011;63021;52.836;6.376;2023-02-07T04:58:16;31.45;;;14.63;;
55455;SDS011;63021;52.836;6.376;2023-02-07T05:00:42;29.95;;;13.32;;
55455;SDS011;63021;52.836;6.376;2023-02-07T05:03:07;36.35;;;14.73;;
55455;SDS011;63021;52.836;6.376;2023-02-07T05:05:33;26.65;;;13.48;;
55455;SDS011;63021;52.836;6.376;2023-02-07T05:08:02;33.08;;;15.70;;
55455;SDS011;63021;52.836;6.376;2023-02-07T05:10:27;25.23;;;12.15;;
55455;SDS011;63021;52.836;6.376;2023-02-07T05:12:53;39.78;;;12.93;;
55455;SDS011;63021;52.836;6.376;2023-02-07T05:15:18;21.77;;;10.10;;
55455;SDS011;63021;52.836;6.376;2023-02-07T05:17:44;17.70;;;10.88;;
55455;SDS011;63021;52.836;6.376;2023-02-07T05:20:09;18.25;;;10.90;;
55455;SDS011;63021;52.836;6.376;2023-02-07T05:22:35;25.55;;;13.05;;
55455;SDS011;63021;52.836;6.376;2023-02-07T05:25:00;18.42;;;10.85;;
55455;SDS011;63021;52.836;6.376;2023-02-07T05:27:26;23.35;;;12.10;;
55455;SDS011;63021;52.836;6.376;2023-02-07T05:29:51;18.25;;;11.05;;
55455;SDS011;63021;52.836;6.376;2023-02-07T05:32:16;27.40;;;12.35;;
55455;SDS011;63021;52.836;6.376;2023-02-07T05:35:00;27.05;;;11.85;;
55455;SDS011;63021;52.836;6.376;2023-02-07T05:37:26;29.30;;;10.68;;
55455;SDS011;63021;52.836;6.376;2023-02-07T05:39:51;23.50;;;12.25;;
55455;SDS011;63021;52.836;6.376;2023-02-07T05:42:16;23.08;;;11.90;;
55455;SDS011;63021;52.836;6.376;2023-02-07T05:44:43;20.55;;;11.38;;
55455;SDS011;63021;52.836;6.376;2023-02-07T05:47:08;22.83;;;10.93;;
55455;SDS011;63021;52.836;6.376;2023-02-07T05:49:34;32.75;;;12.93;;
55455;SDS011;63021;52.836;6.376;2023-02-07T05:51:59;26.58;;;12.45;;
55455;SDS011;63021;52.836;6.376;2023-02-07T05:54:25;21.88;;;12.73;;
55455;SDS011;63021;52.836;6.376;2023-02-07T05:56:50;24.73;;;12.18;;
55455;SDS011;63021;52.836;6.376;2023-02-07T05:59:15;27.85;;;13.25;;
55455;SDS011;63021;52.836;6.376;2023-02-07T06:01:41;21.90;;;13.10;;
55455;SDS011;63021;52.836;6.376;2023-02-07T06:04:06;24.05;;;12.90;;
55455;SDS011;63021;52.836;6.376;2023-02-07T06:06:32;24.52;;;13.18;;
55455;SDS011;63021;52.836;6.376;2023-02-07T06:08:57;25.83;;;13.98;;
55455;SDS011;63021;52.836;6.376;2023-02-07T06:11:23;22.27;;;12.63;;
55455;SDS011;63021;52.836;6.376;2023-02-07T06:13:48;20.88;;;11.80;;
55455;SDS011;63021;52.836;6.376;2023-02-07T06:16:13;24.80;;;12.07;;
55455;SDS011;63021;52.836;6.376;2023-02-07T06:18:39;23.27;;;12.70;;
55455;SDS011;63021;52.836;6.376;2023-02-07T06:21:04;26.40;;;12.90;;
55455;SDS011;63021;52.836;6.376;2023-02-07T06:23:30;20.70;;;12.77;;
55455;SDS011;63021;52.836;6.376;2023-02-07T06:25:55;28.63;;;12.52;;
55455;SDS011;63021;52.836;6.376;2023-02-07T06:28:21;22.58;;;12.73;;
55455;SDS011;63021;52.836;6.376;2023-02-07T06:30:46;25.75;;;11.85;;
55455;SDS011;63021;52.836;6.376;2023-02-07T06:33:11;26.40;;;12.02;;
55455;SDS011;63021;52.836;6.376;2023-02-07T06:35:40;23.02;;;11.88;;
55455;SDS011;63021;52.836;6.376;2023-02-07T06:38:11;31.60;;;16.02;;
55455;SDS011;63021;52.836;6.376;2023-02-07T06:40:40;22.17;;;11.80;;
55455;SDS011;63021;52.836;6.376;2023-02-07T06:43:06;30.55;;;14.52;;
55455;SDS011;63021;52.836;6.376;2023-02-07T06:45:32;24.10;;;12.65;;
55455;SDS011;63021;52.836;6.376;2023-02-07T06:47:57;28.23;;;12.77;;
55455;SDS011;63021;52.836;6.376;2023-02-07T06:50:23;25.38;;;13.05;;
55455;SDS011;63021;52.836;6.376;2023-02-07T06:52:48;40.30;;;16.40;;
55455;SDS011;63021;52.836;6.376;2023-02-07T06:55:13;31.33;;;15.82;;
55455;SDS011;63021;52.836;6.376;2023-02-07T06:57:39;31.23;;;15.00;;
55455;SDS011;63021;52.836;6.376;2023-02-07T07:00:05;33.83;;;14.70;;
55455;SDS011;63021;52.836;6.376;2023-02-07T07:02:30;35.60;;;15.63;;
55455;SDS011;63021;52.836;6.376;2023-02-07T07:04:56;37.67;;;16.48;;
55455;SDS011;63021;52.836;6.376;2023-02-07T07:07:21;32.83;;;14.63;;
55455;SDS011;63021;52.836;6.376;2023-02-07T07:09:47;37.40;;;15.50;;
55455;SDS011;63021;52.836;6.376;2023-02-07T07:12:12;30.25;;;15.60;;
55455;SDS011;63021;52.836;6.376;2023-02-07T07:14:38;36.80;;;16.63;;
55455;SDS011;63021;52.836;6.376;2023-02-07T07:17:03;32.53;;;17.40;;
55455;SDS011;63021;52.836;6.376;2023-02-07T07:19:28;34.17;;;17.67;;
55455;SDS011;63021;52.836;6.376;2023-02-07T07:21:54;37.15;;;17.67;;
55455;SDS011;63021;52.836;6.376;2023-02-07T07:24:19;34.75;;;18.33;;
55455;SDS011;63021;52.836;6.376;2023-02-07T07:26:45;32.47;;;16.90;;
55455;SDS011;63021;52.836;6.376;2023-02-07T07:29:11;29.55;;;16.65;;
55455;SDS011;63021;52.836;6.376;2023-02-07T07:31:36;31.77;;;16.70;;
55455;SDS011;63021;52.836;6.376;2023-02-07T07:34:02;31.80;;;18.08;;
55455;SDS011;63021;52.836;6.376;2023-02-07T07:36:27;34.20;;;16.23;;
55455;SDS011;63021;52.836;6.376;2023-02-07T07:38:53;26.98;;;16.38;;
55455;SDS011;63021;52.836;6.376;2023-02-07T07:41:18;34.80;;;16.83;;
55455;SDS011;63021;52.836;6.376;2023-02-07T07:43:44;31.70;;;17.30;;
55455;SDS011;63021;52.836;6.376;2023-02-07T07:46:09;33.17;;;17.95;;
55455;SDS011;63021;52.836;6.376;2023-02-07T07:48:34;31.00;;;17.05;;
55455;SDS011;63021;52.836;6.376;2023-02-07T07:51:00;31.30;;;16.90;;
55455;SDS011;63021;52.836;6.376;2023-02-07T07:53:25;31.92;;;16.50;;
55455;SDS011;63021;52.836;6.376;2023-02-07T07:55:52;39.20;;;17.45;;
55455;SDS011;63021;52.836;6.376;2023-02-07T07:58:20;28.58;;;16.38;;
55455;SDS011;63021;52.836;6.376;2023-02-07T08:00:47;32.05;;;17.08;;
55455;SDS011;63021;52.836;6.376;2023-02-07T08:03:13;31.30;;;16.33;;
55455;SDS011;63021;52.836;6.376;2023-02-07T08:05:40;32.83;;;16.20;;
55455;SDS011;63021;52.836;6.376;2023-02-07T08:08:05;31.90;;;15.48;;
55455;SDS011;63021;52.836;6.376;2023-02-07T08:10:31;31.10;;;16.05;;
55455;SDS011;63021;52.836;6.376;2023-02-07T08:12:57;32.47;;;17.42;;
55455;SDS011;63021;52.836;6.376;2023-02-07T08:15:23;35.80;;;18.83;;
55455;SDS011;63021;52.836;6.376;2023-02-07T08:17:49;35.42;;;18.70;;
55455;SDS011;63021;52.836;6.376;2023-02-07T08:20:14;34.10;;;19.20;;
55455;SDS011;63021;52.836;6.376;2023-02-07T08:22:40;30.75;;;17.85;;
55455;SDS011;63021;52.836;6.376;2023-02-07T08:25:05;32.13;;;17.88;;
55455;SDS011;63021;52.836;6.376;2023-02-07T08:27:31;30.08;;;17.00;;
55455;SDS011;63021;52.836;6.376;2023-02-07T08:29:57;33.03;;;17.50;;
55455;SDS011;63021;52.836;6.376;2023-02-07T08:32:22;33.55;;;18.92;;
55455;SDS011;63021;52.836;6.376;2023-02-07T08:34:48;30.77;;;16.40;;
55455;SDS011;63021;52.836;6.376;2023-02-07T08:37:14;30.08;;;18.15;;
55455;SDS011;63021;52.836;6.376;2023-02-07T08:39:39;32.00;;;18.50;;
55455;SDS011;63021;52.836;6.376;2023-02-07T08:42:05;32.13;;;18.05;;
55455;SDS011;63021;52.836;6.376;2023-02-07T08:44:34;34.60;;;18.35;;
55455;SDS011;63021;52.836;6.376;2023-02-07T08:47:00;34.97;;;19.63;;
55455;SDS011;63021;52.836;6.376;2023-02-07T08:49:26;34.45;;;18.02;;
55455;SDS011;63021;52.836;6.376;2023-02-07T08:51:51;31.48;;;18.38;;
55455;SDS011;63021;52.836;6.376;2023-02-07T08:54:17;35.60;;;18.05;;
55455;SDS011;63021;52.836;6.376;2023-02-07T08:56:42;26.67;;;17.60;;
55455;SDS011;63021;52.836;6.376;2023-02-07T08:59:08;33.33;;;18.98;;
55455;SDS011;63021;52.836;6.376;2023-02-07T09:01:33;31.10;;;18.95;;
55455;SDS011;63021;52.836;6.376;2023-02-07T09:03:59;30.15;;;17.27;;
55455;SDS011;63021;52.836;6.376;2023-02-07T09:06:25;31.90;;;17.33;;
55455;SDS011;63021;52.836;6.376;2023-02-07T09:08:50;32.03;;;17.55;;
55455;SDS011;63021;52.836;6.376;2023-02-07T09:11:16;29.50;;;15.85;;
55455;SDS011;63021;52.836;6.376;2023-02-07T09:13:42;26.65;;;17.40;;
55455;SDS011;63021;52.836;6.376;2023-02-07T09:16:09;28.92;;;16.80;;
55455;SDS011;63021;52.836;6.376;2023-02-07T09:18:36;26.52;;;15.82;;
55455;SDS011;63021;52.836;6.376;2023-02-07T09:21:02;22.50;;;14.60;;
55455;SDS011;63021;52.836;6.376;2023-02-07T09:23:28;30.27;;;16.65;;
55455;SDS011;63021;52.836;6.376;2023-02-07T09:25:58;23.08;;;15.80;;
55455;SDS011;63021;52.836;6.376;2023-02-07T09:28:25;28.83;;;16.35;;
55455;SDS011;63021;52.836;6.376;2023-02-07T09:30:50;27.85;;;15.75;;
55455;SDS011;63021;52.836;6.376;2023-02-07T09:33:16;29.42;;;15.98;;
55455;SDS011;63021;52.836;6.376;2023-02-07T09:35:43;24.20;;;14.77;;
55455;SDS011;63021;52.836;6.376;2023-02-07T09:38:13;24.17;;;15.13;;
55455;SDS011;63021;52.836;6.376;2023-02-07T09:40:44;21.42;;;15.07;;
55455;SDS011;63021;52.836;6.376;2023-02-07T09:43:25;26.23;;;14.90;;
55455;SDS011;63021;52.836;6.376;2023-02-07T09:45:57;29.67;;;16.30;;
55455;SDS011;63021;52.836;6.376;2023-02-07T09:48:47;29.92;;;16.55;;
55455;SDS011;63021;52.836;6.376;2023-02-07T09:51:16;24.27;;;14.98;;
55455;SDS011;63021;52.836;6.376;2023-02-07T09:56:13;24.00;;;14.95;;
55455;SDS011;63021;52.836;6.376;2023-02-07T09:58:54;22.98;;;15.30;;
55455;SDS011;63021;52.836;6.376;2023-02-07T10:01:29;27.77;;;17.67;;
55455;SDS011;63021;52.836;6.376;2023-02-07T10:06:47;25.38;;;15.55;;
55455;SDS011;63021;52.836;6.376;2023-02-07T10:09:17;24.77;;;16.08;;
55455;SDS011;63021;52.836;6.376;2023-02-07T10:11:55;28.88;;;16.95;;
55455;SDS011;63021;52.836;6.376;2023-02-07T10:26:35;24.55;;;15.35;;
55455;SDS011;63021;52.836;6.376;2023-02-07T10:32:23;26.70;;;15.18;;
55455;SDS011;63021;52.836;6.376;2023-02-07T10:34:54;29.15;;;15.20;;
55455;SDS011;63021;52.836;6.376;2023-02-07T10:37:25;27.00;;;14.30;;
55455;SDS011;63021;52.836;6.376;2023-02-07T10:42:54;25.40;;;14.45;;
55455;SDS011;63021;52.836;6.376;2023-02-07T10:45:24;27.00;;;14.77;;
55455;SDS011;63021;52.836;6.376;2023-02-07T10:47:49;27.70;;;13.48;;
55455;SDS011;63021;52.836;6.376;2023-02-07T10:50:16;23.10;;;14.52;;
55455;SDS011;63021;52.836;6.376;2023-02-07T10:52:54;22.90;;;14.50;;
55455;SDS011;63021;52.836;6.376;2023-02-07T10:55:38;22.52;;;12.68;;
55455;SDS011;63021;52.836;6.376;2023-02-07T10:58:12;23.48;;;13.15;;
55455;SDS011;63021;52.836;6.376;2023-02-07T11:00:46;30.45;;;14.88;;
55455;SDS011;63021;52.836;6.376;2023-02-07T11:03:18;25.95;;;14.32;;
55455;SDS011;63021;52.836;6.376;2023-02-07T11:08:25;20.15;;;13.05;;
55455;SDS011;63021;52.836;6.376;2023-02-07T11:10:54;21.40;;;12.63;;
55455;SDS011;63021;52.836;6.376;2023-02-07T11:13:24;25.80;;;14.77;;
55455;SDS011;63021;52.836;6.376;2023-02-07T11:16:05;21.40;;;12.05;;
55455;SDS011;63021;52.836;6.376;2023-02-07T11:21:38;21.52;;;12.13;;
55455;SDS011;63021;52.836;6.376;2023-02-07T11:29:20;18.63;;;10.98;;
55455;SDS011;63021;52.836;6.376;2023-02-07T11:31:47;24.17;;;12.35;;
55455;SDS011;63021;52.836;6.376;2023-02-07T11:37:26;19.00;;;12.55;;
55455;SDS011;63021;52.836;6.376;2023-02-07T11:39:55;23.88;;;12.23;;
55455;SDS011;63021;52.836;6.376;2023-02-07T11:42:41;19.67;;;12.43;;
55455;SDS011;63021;52.836;6.376;2023-02-07T11:45:13;22.58;;;12.50;;
55455;SDS011;63021;52.836;6.376;2023-02-07T11:47:42;21.45;;;12.88;;
55455;SDS011;63021;52.836;6.376;2023-02-07T11:50:31;20.10;;;12.90;;
55455;SDS011;63021;52.836;6.376;2023-02-07T11:53:01;19.38;;;12.70;;
55455;SDS011;63021;52.836;6.376;2023-02-07T11:55:32;20.00;;;12.13;;
55455;SDS011;63021;52.836;6.376;2023-02-07T11:58:06;21.52;;;12.32;;
55455;SDS011;63021;52.836;6.376;2023-02-07T12:00:42;15.95;;;12.05;;
55455;SDS011;63021;52.836;6.376;2023-02-07T12:03:19;20.60;;;12.07;;
55455;SDS011;63021;52.836;6.376;2023-02-07T12:05:49;21.30;;;12.15;;
55455;SDS011;63021;52.836;6.376;2023-02-07T12:08:23;17.48;;;10.13;;
55455;SDS011;63021;52.836;6.376;2023-02-07T12:10:53;21.10;;;12.27;;
55455;SDS011;63021;52.836;6.376;2023-02-07T12:15:55;18.85;;;11.80;;
55455;SDS011;63021;52.836;6.376;2023-02-07T12:21:08;19.48;;;10.98;;
55455;SDS011;63021;52.836;6.376;2023-02-07T12:26:39;21.50;;;11.32;;
55455;SDS011;63021;52.836;6.376;2023-02-07T12:29:20;26.02;;;12.40;;
55455;SDS011;63021;52.836;6.376;2023-02-07T12:31:50;16.15;;;9.95;;
55455;SDS011;63021;52.836;6.376;2023-02-07T12:34:30;20.10;;;11.45;;
55455;SDS011;63021;52.836;6.376;2023-02-07T12:37:41;18.92;;;10.75;;
55455;SDS011;63021;52.836;6.376;2023-02-07T12:44:53;16.85;;;10.52;;
55455;SDS011;63021;52.836;6.376;2023-02-07T12:47:28;16.00;;;10.60;;
55455;SDS011;63021;52.836;6.376;2023-02-07T12:50:02;18.75;;;10.32;;
55455;SDS011;63021;52.836;6.376;2023-02-07T12:56:04;16.25;;;10.68;;
55455;SDS011;63021;52.836;6.376;2023-02-07T13:09:25;15.65;;;9.70;;
55455;SDS011;63021;52.836;6.376;2023-02-07T13:12:16;14.60;;;9.98;;
55455;SDS011;63021;52.836;6.376;2023-02-07T13:17:53;17.58;;;10.80;;
55455;SDS011;63021;52.836;6.376;2023-02-07T13:23:20;13.57;;;8.48;;
55455;SDS011;63021;52.836;6.376;2023-02-07T13:25:51;12.70;;;8.50;;
55455;SDS011;63021;52.836;6.376;2023-02-07T13:28:22;19.70;;;9.13;;
55455;SDS011;63021;52.836;6.376;2023-02-07T13:31:08;14.77;;;8.85;;
55455;SDS011;63021;52.836;6.376;2023-02-07T13:33:38;17.60;;;9.20;;
55455;SDS011;63021;52.836;6.376;2023-02-07T13:38:45;15.40;;;10.20;;
55455;SDS011;63021;52.836;6.376;2023-02-07T14:01:16;17.83;;;10.77;;
55455;SDS011;63021;52.836;6.376;2023-02-07T14:06:33;19.17;;;10.98;;
55455;SDS011;63021;52.836;6.376;2023-02-07T14:14:37;16.40;;;10.60;;
55455;SDS011;63021;52.836;6.376;2023-02-07T14:17:04;23.70;;;11.77;;
55455;SDS011;63021;52.836;6.376;2023-02-07T14:22:20;17.27;;;10.02;;
55455;SDS011;63021;52.836;6.376;2023-02-07T14:27:41;26.60;;;11.23;;
55455;SDS011;63021;52.836;6.376;2023-02-07T14:37:43;21.15;;;10.48;;
55455;SDS011;63021;52.836;6.376;2023-02-07T14:40:24;15.88;;;9.93;;
55455;SDS011;63021;52.836;6.376;2023-02-07T14:43:13;21.48;;;11.02;;
55455;SDS011;63021;52.836;6.376;2023-02-07T14:54:00;18.25;;;11.80;;
55455;SDS011;63021;52.836;6.376;2023-02-07T14:56:36;15.95;;;10.65;;
55455;SDS011;63021;52.836;6.376;2023-02-07T14:59:04;16.95;;;10.57;;
55455;SDS011;63021;52.836;6.376;2023-02-07T15:01:32;18.67;;;11.30;;
55455;SDS011;63021;52.836;6.376;2023-02-07T15:03:58;16.40;;;10.68;;
55455;SDS011;63021;52.836;6.376;2023-02-07T15:06:26;20.33;;;10.65;;
55455;SDS011;63021;52.836;6.376;2023-02-07T15:08:57;20.60;;;12.70;;
55455;SDS011;63021;52.836;6.376;2023-02-07T15:11:24;19.30;;;10.98;;
55455;SDS011;63021;52.836;6.376;2023-02-07T15:13:51;17.75;;;10.25;;
55455;SDS011;63021;52.836;6.376;2023-02-07T15:16:26;17.83;;;10.85;;
55455;SDS011;63021;52.836;6.376;2023-02-07T15:21:38;24.92;;;16.35;;
55455;SDS011;63021;52.836;6.376;2023-02-07T15:24:42;24.55;;;13.15;;
55455;SDS011;63021;52.836;6.376;2023-02-07T15:27:03;20.85;;;14.10;;
55455;SDS011;63021;52.836;6.376;2023-02-07T15:29:31;16.55;;;11.38;;
55455;SDS011;63021;52.836;6.376;2023-02-07T15:32:12;23.02;;;11.38;;
55455;SDS011;63021;52.836;6.376;2023-02-07T15:37:46;17.40;;;10.23;;
55455;SDS011;63021;52.836;6.376;2023-02-07T15:40:14;19.63;;;11.07;;
55455;SDS011;63021;52.836;6.376;2023-02-07T15:42:54;16.90;;;10.00;;
55455;SDS011;63021;52.836;6.376;2023-02-07T15:47:57;17.80;;;10.73;;
55455;SDS011;63021;52.836;6.376;2023-02-07T15:50:25;16.27;;;10.32;;
55455;SDS011;63021;52.836;6.376;2023-02-07T15:52:54;17.60;;;11.27;;
55455;SDS011;63021;52.836;6.376;2023-02-07T15:55:28;13.65;;;10.05;;
55455;SDS011;63021;52.836;6.376;2023-02-07T15:57:58;15.45;;;10.38;;
55455;SDS011;63021;52.836;6.376;2023-02-07T16:00:31;18.85;;;10.80;;
55455;SDS011;63021;52.836;6.376;2023-02-07T16:03:03;15.93;;;10.73;;
55455;SDS011;63021;52.836;6.376;2023-02-07T16:05:35;16.25;;;10.52;;
55455;SDS011;63021;52.836;6.376;2023-02-07T16:08:02;16.25;;;9.75;;
55455;SDS011;63021;52.836;6.376;2023-02-07T16:10:48;18.55;;;10.23;;
55455;SDS011;63021;52.836;6.376;2023-02-07T16:13:16;16.13;;;10.35;;
55455;SDS011;63021;52.836;6.376;2023-02-07T16:21:30;17.88;;;10.43;;
55455;SDS011;63021;52.836;6.376;2023-02-07T16:24:03;13.73;;;9.55;;
55455;SDS011;63021;52.836;6.376;2023-02-07T16:26:33;16.80;;;9.02;;
55455;SDS011;63021;52.836;6.376;2023-02-07T16:29:00;15.45;;;9.50;;
55455;SDS011;63021;52.836;6.376;2023-02-07T16:31:32;16.75;;;9.65;;
55455;SDS011;63021;52.836;6.376;2023-02-07T16:33:58;18.40;;;9.70;;
55455;SDS011;63021;52.836;6.376;2023-02-07T16:36:23;16.90;;;10.75;;
55455;SDS011;63021;52.836;6.376;2023-02-07T16:38:52;16.73;;;10.15;;
55455;SDS011;63021;52.836;6.376;2023-02-07T16:41:27;20.38;;;10.00;;
55455;SDS011;63021;52.836;6.376;2023-02-07T16:44:00;20.65;;;10.88;;
55455;SDS011;63021;52.836;6.376;2023-02-07T16:46:29;21.83;;;10.50;;
55455;SDS011;63021;52.836;6.376;2023-02-07T16:48:55;17.63;;;10.75;;
55455;SDS011;63021;52.836;6.376;2023-02-07T16:51:20;21.92;;;12.50;;
55455;SDS011;63021;52.836;6.376;2023-02-07T16:53:46;17.10;;;11.18;;
55455;SDS011;63021;52.836;6.376;2023-02-07T16:56:13;20.05;;;11.77;;
55455;SDS011;63021;52.836;6.376;2023-02-07T16:58:42;20.95;;;12.23;;
55455;SDS011;63021;52.836;6.376;2023-02-07T17:01:10;19.13;;;12.95;;
55455;SDS011;63021;52.836;6.376;2023-02-07T17:03:40;23.60;;;13.30;;
55455;SDS011;63021;52.836;6.376;2023-02-07T17:06:08;25.13;;;13.80;;
55455;SDS011;63021;52.836;6.376;2023-02-07T17:08:37;28.00;;;15.32;;
55455;SDS011;63021;52.836;6.376;2023-02-07T17:11:03;29.63;;;16.00;;
55455;SDS011;63021;52.836;6.376;2023-02-07T17:13:32;30.88;;;14.27;;
55455;SDS011;63021;52.836;6.376;2023-02-07T17:15:57;28.23;;;15.10;;
55455;SDS011;63021;52.836;6.376;2023-02-07T17:18:23;27.75;;;14.68;;
55455;SDS011;63021;52.836;6.376;2023-02-07T17:20:49;26.15;;;14.50;;
55455;SDS011;63021;52.836;6.376;2023-02-07T17:23:16;26.67;;;13.93;;
55455;SDS011;63021;52.836;6.376;2023-02-07T17:25:42;28.50;;;14.57;;
55455;SDS011;63021;52.836;6.376;2023-02-07T17:28:11;25.80;;;14.32;;
55455;SDS011;63021;52.836;6.376;2023-02-07T17:30:41;29.40;;;15.68;;